createdAt,value
2023-10-20T00:02:35.521Z,8.90
2023-10-20T00:13:00.683Z,9.65
2023-10-20T00:23:22.212Z,9.10
2023-10-20T00:33:43.679Z,9.00
2023-10-20T00:44:05.444Z,9.20
2023-10-20T00:54:26.677Z,9.60
2023-10-20T01:04:47.996Z,9.93
2023-10-20T01:15:09.490Z,9.23
2023-10-20T01:25:30.477Z,9.18
2023-10-20T01:35:51.894Z,8.45
2023-10-20T01:46:13.060Z,8.77
2023-10-20T01:56:34.387Z,9.27
2023-10-20T02:06:55.959Z,8.40
2023-10-20T02:17:17.099Z,8.90
2023-10-20T02:27:40.915Z,9.07
2023-10-20T02:38:02.405Z,8.43
2023-10-20T02:48:25.061Z,8.40
2023-10-20T02:58:47.335Z,8.32
2023-10-20T03:09:09.209Z,8.80
2023-10-20T03:19:30.294Z,8.48
2023-10-20T03:29:53.292Z,8.90
2023-10-20T03:40:17.884Z,9.68
2023-10-20T03:50:40.015Z,8.73
2023-10-20T04:01:05.010Z,8.48
2023-10-20T04:11:26.180Z,8.52
2023-10-20T04:21:47.408Z,9.60
2023-10-20T04:32:27.426Z,9.48
2023-10-20T04:43:18.006Z,8.82
2023-10-20T04:53:55.232Z,9.35
2023-10-20T05:04:30.140Z,8.70
2023-10-20T05:14:52.407Z,9.38
2023-10-20T05:25:13.938Z,8.30
2023-10-20T05:35:35.357Z,9.07
2023-10-20T05:45:56.761Z,8.95
2023-10-20T05:56:18.146Z,8.50
2023-10-20T06:06:40.483Z,9.40
2023-10-20T06:17:01.836Z,8.30
2023-10-20T06:27:22.925Z,8.27
2023-10-20T06:37:53.256Z,9.00
2023-10-20T06:48:15.614Z,9.20
2023-10-20T06:58:37.104Z,8.52
2023-10-20T07:08:59.050Z,8.82
2023-10-20T07:19:20.431Z,9.40
2023-10-20T07:29:45.305Z,8.85
2023-10-20T07:40:10.073Z,8.82
2023-10-20T07:50:31.292Z,8.50
2023-10-20T08:00:52.504Z,8.48
2023-10-20T08:11:14.459Z,9.07
2023-10-20T08:21:36.101Z,8.35
2023-10-20T08:31:57.405Z,8.75
2023-10-20T08:42:23.373Z,8.65
2023-10-20T08:52:46.181Z,9.00
2023-10-20T09:03:08.064Z,8.23
2023-10-20T09:13:39.221Z,9.27
2023-10-20T09:24:03.850Z,8.80
2023-10-20T09:34:25.177Z,9.18
2023-10-20T09:45:05.929Z,8.77
2023-10-20T09:55:27.579Z,9.30
2023-10-20T10:05:48.990Z,8.00
2023-10-20T10:16:12.405Z,8.05
2023-10-20T10:26:33.641Z,7.50
2023-10-20T10:36:56.497Z,8.13
2023-10-20T10:47:20.481Z,7.63
2023-10-20T10:57:42.763Z,7.78
2023-10-20T11:08:05.023Z,7.28
2023-10-20T11:18:27.879Z,8.32
2023-10-20T11:28:51.366Z,8.25
2023-10-20T11:39:14.289Z,8.80
2023-10-20T11:49:35.959Z,8.32
2023-10-20T11:59:57.294Z,7.15
2023-10-20T12:10:18.675Z,8.05
2023-10-20T12:20:40.622Z,7.85
2023-10-20T12:31:02.148Z,7.03
2023-10-20T12:41:23.554Z,7.20
2023-10-20T12:51:44.857Z,6.80
2023-10-20T13:02:06.382Z,6.53
2023-10-20T13:12:27.776Z,7.35
2023-10-20T13:22:49.229Z,6.78
2023-10-20T13:33:11.961Z,6.45
2023-10-20T13:43:33.882Z,6.32
2023-10-20T13:53:55.472Z,6.78
2023-10-20T14:04:17.143Z,7.00
2023-10-20T14:14:38.337Z,7.15
2023-10-20T14:24:59.761Z,6.97
2023-10-20T14:35:20.837Z,6.45
2023-10-20T14:45:42.363Z,7.07
2023-10-20T14:56:04.438Z,6.90
2023-10-20T15:06:27.503Z,6.40
2023-10-20T15:16:48.884Z,7.72
2023-10-20T15:27:09.975Z,7.38
2023-10-20T15:37:31.580Z,7.95
2023-10-20T15:47:53.055Z,7.25
2023-10-20T15:58:16.699Z,7.40
2023-10-20T16:08:41.086Z,7.35
2023-10-20T16:19:02.600Z,7.78
2023-10-20T16:29:23.838Z,7.63
2023-10-20T16:39:45.228Z,7.70
2023-10-20T16:50:07.368Z,7.13
2023-10-20T17:00:31.181Z,6.97
2023-10-20T17:10:52.152Z,7.28
2023-10-20T17:21:14.390Z,6.88
2023-10-20T17:31:35.623Z,7.35
2023-10-20T17:41:59.356Z,7.10
2023-10-20T17:52:20.880Z,7.10
2023-10-20T18:02:41.767Z,7.43
2023-10-20T18:13:03.319Z,7.10
2023-10-20T18:23:24.559Z,7.03
2023-10-20T18:33:46.892Z,7.03
2023-10-20T18:44:09.295Z,7.22
2023-10-20T18:54:30.693Z,7.07
2023-10-20T19:04:52.047Z,7.80
2023-10-20T19:15:15.152Z,7.38
2023-10-20T19:25:38.818Z,7.68
2023-10-20T19:36:03.465Z,7.10
2023-10-20T19:46:24.579Z,6.93
2023-10-20T19:56:45.707Z,7.15
2023-10-20T20:07:07.085Z,7.93
2023-10-20T20:17:28.460Z,8.10
2023-10-20T20:27:49.834Z,7.63
2023-10-20T20:38:11.536Z,7.45
2023-10-20T20:48:33.017Z,7.55
2023-10-20T20:58:56.757Z,7.40
2023-10-20T21:09:20.468Z,7.13
2023-10-20T21:19:43.583Z,8.10
2023-10-20T21:30:07.273Z,6.75
2023-10-20T21:40:28.789Z,6.88
2023-10-20T21:51:03.901Z,7.00
2023-10-20T22:01:25.463Z,7.13
2023-10-20T22:11:47.124Z,7.20
2023-10-20T22:22:08.915Z,7.18
2023-10-20T22:32:29.895Z,7.05
2023-10-20T22:42:51.909Z,6.47
2023-10-20T22:53:13.567Z,6.28
2023-10-20T23:03:35.267Z,6.47
2023-10-20T23:13:56.517Z,6.80
2023-10-20T23:24:17.832Z,5.72
2023-10-20T23:34:39.122Z,6.72
2023-10-20T23:45:00.492Z,6.45
2023-10-20T23:55:21.699Z,7.13
